createdAt,value
2023-03-17T00:00:43.607Z,99.90
2023-03-17T00:04:45.427Z,99.90
2023-03-17T00:08:47.411Z,99.90
2023-03-17T00:12:50.757Z,99.90
2023-03-17T00:16:52.859Z,99.90
2023-03-17T00:20:54.894Z,99.90
2023-03-17T00:24:56.720Z,99.90
2023-03-17T00:28:58.766Z,99.90
2023-03-17T00:33:01.867Z,99.90
2023-03-17T00:37:04.446Z,99.90
2023-03-17T00:41:06.350Z,99.90
2023-03-17T00:45:10.258Z,99.90
2023-03-17T00:49:23.543Z,99.90
2023-03-17T00:53:25.855Z,99.90
2023-03-17T00:57:27.879Z,99.90
2023-03-17T01:01:30.264Z,99.90
2023-03-17T01:05:32.041Z,99.90
2023-03-17T01:09:34.255Z,99.90
2023-03-17T01:13:36.816Z,99.90
2023-03-17T01:17:39.534Z,99.90
2023-03-17T01:21:42.526Z,99.90
2023-03-17T01:25:44.891Z,99.90
2023-03-17T01:29:46.726Z,99.90
2023-03-17T01:33:48.610Z,99.90
2023-03-17T01:37:51.693Z,99.90
2023-03-17T01:41:56.848Z,99.90
2023-03-17T01:46:37.446Z,99.90
2023-03-17T01:50:39.429Z,99.90
2023-03-17T01:55:04.432Z,99.90
2023-03-17T01:59:07.616Z,99.90
2023-03-17T02:03:09.748Z,99.90
2023-03-17T02:07:12.538Z,99.90
2023-03-17T02:11:15.389Z,99.90
2023-03-17T02:15:17.479Z,99.90
2023-03-17T02:19:19.340Z,99.90
2023-03-17T02:23:22.911Z,99.90
2023-03-17T02:27:36.585Z,99.90
2023-03-17T02:31:38.394Z,99.90
2023-03-17T02:35:40.933Z,99.90
2023-03-17T02:39:42.859Z,99.90
2023-03-17T02:43:44.874Z,99.90
2023-03-17T02:47:47.101Z,99.90
2023-03-17T02:51:48.898Z,99.90
2023-03-17T02:55:50.782Z,99.90
2023-03-17T02:59:52.865Z,99.90
2023-03-17T03:03:55.091Z,99.90
2023-03-17T03:08:03.033Z,99.90
2023-03-17T03:12:18.039Z,99.90
2023-03-17T03:16:19.884Z,99.90
2023-03-17T03:20:28.239Z,99.90
2023-03-17T03:24:37.013Z,99.90
2023-03-17T03:28:38.934Z,99.90
2023-03-17T03:32:40.812Z,99.90
2023-03-17T03:36:42.911Z,99.90
2023-03-17T03:40:45.048Z,99.90
2023-03-17T03:44:46.884Z,99.90
2023-03-17T03:48:48.698Z,99.90
2023-03-17T03:52:50.583Z,99.90
2023-03-17T03:56:52.677Z,99.90
2023-03-17T04:00:54.533Z,99.90
2023-03-17T04:04:56.449Z,99.90
2023-03-17T04:08:58.551Z,99.90
2023-03-17T04:13:00.675Z,99.90
2023-03-17T04:17:03.096Z,99.90
2023-03-17T04:21:05.523Z,99.90
2023-03-17T04:25:08.081Z,99.90
2023-03-17T04:29:10.811Z,99.90
2023-03-17T04:33:12.692Z,99.90
2023-03-17T04:37:14.507Z,99.90
2023-03-17T04:41:16.488Z,99.90
2023-03-17T04:45:18.426Z,99.90
2023-03-17T04:49:20.193Z,99.90
2023-03-17T04:53:22.349Z,99.90
2023-03-17T04:57:24.621Z,99.90
2023-03-17T05:01:26.512Z,99.90
2023-03-17T05:05:33.001Z,99.90
2023-03-17T05:09:35.071Z,99.90
2023-03-17T05:13:38.559Z,99.90
2023-03-17T05:17:40.880Z,99.90
2023-03-17T05:21:42.820Z,99.90
2023-03-17T05:25:44.752Z,99.90
2023-03-17T05:29:46.724Z,99.90
2023-03-17T05:33:49.228Z,99.90
2023-03-17T05:37:51.194Z,99.90
2023-03-17T05:41:53.371Z,99.90
2023-03-17T05:45:57.699Z,99.90
2023-03-17T05:50:01.261Z,99.90
2023-03-17T05:54:03.280Z,99.90
2023-03-17T05:58:07.962Z,99.90
2023-03-17T06:02:11.544Z,99.90
2023-03-17T06:06:16.401Z,99.90
2023-03-17T06:10:18.576Z,99.90
2023-03-17T06:14:24.134Z,99.90
2023-03-17T06:18:28.455Z,99.90
2023-03-17T06:22:30.956Z,99.90
2023-03-17T06:26:33.055Z,99.90
2023-03-17T06:30:35.392Z,99.90
2023-03-17T06:34:37.291Z,99.90
2023-03-17T06:38:39.516Z,99.90
2023-03-17T06:42:41.481Z,99.90
2023-03-17T06:46:43.447Z,99.90
2023-03-17T06:50:47.573Z,99.90
2023-03-17T06:54:49.480Z,99.90
2023-03-17T06:58:54.026Z,99.90
2023-03-17T07:02:56.253Z,99.90
2023-03-17T07:06:58.098Z,99.90
2023-03-17T07:11:00.306Z,99.90
2023-03-17T07:15:02.208Z,99.90
2023-03-17T07:19:04.837Z,99.90
2023-03-17T07:23:07.843Z,99.90
2023-03-17T07:27:16.511Z,99.90
2023-03-17T07:31:18.407Z,99.90
2023-03-17T07:35:20.389Z,99.90
2023-03-17T07:39:22.374Z,99.90
2023-03-17T07:43:24.172Z,99.90
2023-03-17T07:47:26.255Z,99.90
2023-03-17T07:51:28.272Z,99.90
2023-03-17T07:55:31.653Z,99.90
2023-03-17T07:59:33.837Z,99.90
2023-03-17T08:03:38.636Z,99.90
2023-03-17T08:07:41.801Z,99.90
2023-03-17T08:11:44.841Z,99.90
2023-03-17T08:15:47.412Z,99.90
2023-03-17T08:19:49.370Z,99.90
2023-03-17T08:23:51.483Z,99.90
2023-03-17T08:27:54.114Z,99.90
2023-03-17T08:31:56.859Z,99.90
2023-03-17T08:35:59.136Z,99.90
2023-03-17T08:40:01.286Z,99.90
2023-03-17T08:44:03.829Z,99.90
2023-03-17T08:48:05.731Z,99.90
2023-03-17T08:52:08.150Z,99.90
2023-03-17T08:56:10.046Z,99.90
2023-03-17T09:00:14.073Z,99.60
2023-03-17T09:04:16.931Z,99.90
2023-03-17T09:08:18.981Z,99.90
2023-03-17T09:12:20.817Z,99.90
2023-03-17T09:16:24.363Z,99.90
2023-03-17T09:20:26.347Z,99.90
2023-03-17T09:24:28.139Z,99.90
2023-03-17T09:28:30.046Z,99.80
2023-03-17T09:32:32.512Z,99.60
2023-03-17T09:36:34.793Z,98.40
2023-03-17T09:40:48.014Z,99.20
2023-03-17T09:45:19.986Z,99.20
2023-03-17T09:49:29.927Z,98.00
2023-03-17T09:53:37.628Z,97.90
2023-03-17T09:57:40.089Z,98.10
2023-03-17T10:01:42.323Z,97.90
2023-03-17T10:05:44.905Z,98.10
2023-03-17T10:10:05.234Z,98.10
2023-03-17T10:14:51.787Z,97.90
2023-03-17T10:19:01.335Z,97.80
2023-03-17T10:23:12.419Z,97.50
2023-03-17T10:27:14.913Z,97.30
2023-03-17T10:31:19.984Z,97.70
2023-03-17T10:35:23.477Z,97.70
2023-03-17T10:39:25.318Z,97.70
2023-03-17T10:43:36.153Z,97.50
2023-03-17T10:47:39.696Z,97.80
2023-03-17T10:51:41.531Z,97.80
2023-03-17T10:55:51.039Z,98.30
2023-03-17T10:59:54.126Z,97.90
2023-03-17T11:04:20.838Z,98.20
2023-03-17T11:08:23.217Z,97.80
2023-03-17T11:12:43.203Z,97.60
2023-03-17T11:17:01.218Z,97.80
2023-03-17T11:21:18.655Z,97.90
2023-03-17T11:25:21.005Z,97.50
2023-03-17T11:29:52.044Z,96.80
2023-03-17T11:34:27.388Z,96.90
2023-03-17T11:38:30.962Z,96.60
2023-03-17T11:43:04.130Z,96.10
2023-03-17T11:47:43.486Z,96.40
2023-03-17T11:52:20.495Z,96.70
2023-03-17T11:56:53.282Z,96.80
2023-03-17T12:00:58.956Z,96.70
2023-03-17T12:05:17.274Z,97.30
2023-03-17T12:09:37.428Z,96.60
2023-03-17T12:13:47.496Z,96.70
2023-03-17T12:18:07.250Z,96.80
2023-03-17T12:22:28.433Z,96.70
2023-03-17T12:26:51.327Z,96.60
2023-03-17T12:31:02.550Z,96.80
2023-03-17T12:35:35.004Z,96.90
2023-03-17T12:39:37.775Z,97.20
2023-03-17T12:44:13.342Z,97.00
2023-03-17T12:48:37.700Z,96.90
2023-03-17T12:53:15.525Z,96.90
2023-03-17T12:57:28.996Z,97.10
2023-03-17T13:01:42.039Z,97.50
2023-03-17T13:05:48.250Z,97.00
2023-03-17T13:09:56.123Z,97.00
2023-03-17T13:14:27.265Z,96.80
2023-03-17T13:18:35.169Z,97.10
2023-03-17T13:22:43.029Z,97.20
2023-03-17T13:27:00.925Z,97.00
2023-03-17T13:31:20.341Z,97.20
2023-03-17T13:35:25.843Z,96.80
2023-03-17T13:40:22.294Z,96.90
2023-03-17T13:44:35.424Z,96.80
2023-03-17T13:48:37.318Z,97.10
2023-03-17T13:52:54.544Z,97.40
2023-03-17T13:57:00.241Z,97.30
2023-03-17T14:01:07.307Z,97.10
2023-03-17T14:05:30.136Z,97.20
2023-03-17T14:09:39.280Z,97.60
2023-03-17T14:14:31.935Z,97.50
2023-03-17T14:18:41.213Z,97.60
2023-03-17T14:22:46.058Z,97.70
2023-03-17T14:26:48.762Z,97.50
2023-03-17T14:30:56.106Z,97.50
2023-03-17T14:34:58.652Z,97.20
2023-03-17T14:39:00.462Z,97.40
2023-03-17T14:43:03.189Z,97.50
2023-03-17T14:47:07.405Z,97.80
2023-03-17T14:51:28.454Z,97.50
2023-03-17T14:55:43.063Z,97.80
2023-03-17T14:59:56.384Z,98.00
2023-03-17T15:04:22.056Z,98.30
2023-03-17T15:08:41.024Z,98.00
2023-03-17T15:12:43.080Z,98.20
2023-03-17T15:16:53.214Z,98.10
2023-03-17T15:20:55.959Z,98.10
2023-03-17T15:25:02.289Z,98.10
2023-03-17T15:29:04.077Z,98.10
2023-03-17T15:33:34.808Z,98.50
2023-03-17T15:37:36.616Z,98.60
2023-03-17T15:41:42.531Z,98.80
2023-03-17T15:45:45.229Z,98.60
2023-03-17T15:49:47.717Z,99.20
2023-03-17T15:53:49.611Z,99.10
2023-03-17T15:57:55.253Z,99.30
2023-03-17T16:01:57.298Z,99.40
2023-03-17T16:06:01.821Z,99.60
2023-03-17T16:10:24.934Z,99.70
2023-03-17T16:14:28.008Z,99.70
2023-03-17T16:18:36.151Z,99.80
2023-03-17T16:22:43.563Z,99.90
2023-03-17T16:26:51.206Z,99.90
2023-03-17T16:30:54.610Z,99.90
2023-03-17T16:34:57.634Z,99.90
2023-03-17T16:39:00.108Z,99.90
2023-03-17T16:43:10.382Z,99.90
2023-03-17T16:47:17.611Z,99.90
2023-03-17T16:51:19.625Z,99.90
2023-03-17T16:55:22.246Z,99.90
2023-03-17T16:59:31.254Z,99.90
2023-03-17T17:03:33.163Z,99.90
2023-03-17T17:07:35.073Z,99.90
2023-03-17T17:11:36.937Z,99.90
2023-03-17T17:15:39.390Z,99.90
2023-03-17T17:19:41.284Z,99.90
2023-03-17T17:23:43.090Z,99.90
2023-03-17T17:27:48.733Z,99.90
2023-03-17T17:31:50.788Z,99.90
2023-03-17T17:35:52.803Z,99.90
2023-03-17T17:40:10.034Z,99.90
2023-03-17T17:44:11.971Z,99.90
2023-03-17T17:48:19.735Z,99.90
2023-03-17T17:52:43.728Z,99.90
2023-03-17T17:56:47.142Z,99.90
2023-03-17T18:00:49.616Z,99.90
2023-03-17T18:04:54.508Z,99.90
2023-03-17T18:09:00.708Z,99.90
2023-03-17T18:13:02.620Z,99.90
2023-03-17T18:17:05.059Z,99.90
2023-03-17T18:21:06.935Z,99.90
2023-03-17T18:25:10.416Z,99.90
2023-03-17T18:29:12.326Z,99.90
2023-03-17T18:33:17.900Z,99.90
2023-03-17T18:37:19.849Z,99.90
2023-03-17T18:41:21.667Z,99.90
2023-03-17T18:45:26.859Z,99.90
2023-03-17T18:49:29.518Z,99.90
2023-03-17T18:53:35.365Z,99.90
2023-03-17T18:57:44.363Z,99.90
2023-03-17T19:01:46.858Z,99.90
2023-03-17T19:06:00.332Z,99.90
2023-03-17T19:10:02.404Z,99.90
2023-03-17T19:14:11.933Z,99.90
2023-03-17T19:18:15.500Z,99.90
2023-03-17T19:22:18.490Z,99.90
2023-03-17T19:26:36.695Z,99.90
2023-03-17T19:30:40.399Z,99.90
2023-03-17T19:34:42.748Z,99.90
2023-03-17T19:38:44.745Z,99.90
2023-03-17T19:43:07.289Z,99.90
2023-03-17T19:47:11.460Z,99.90
2023-03-17T19:51:14.844Z,99.90
2023-03-17T19:55:17.868Z,99.90
2023-03-17T19:59:22.718Z,99.90
2023-03-17T20:03:33.885Z,99.90
2023-03-17T20:07:36.679Z,99.90
2023-03-17T20:11:39.584Z,99.90
2023-03-17T20:15:44.756Z,99.90
2023-03-17T20:19:47.010Z,99.90
2023-03-17T20:23:48.826Z,99.90
2023-03-17T20:27:51.119Z,99.90
2023-03-17T20:31:53.092Z,99.90
2023-03-17T20:35:57.971Z,99.90
2023-03-17T20:40:02.586Z,99.90
2023-03-17T20:44:04.596Z,99.90
2023-03-17T20:48:10.577Z,99.90
2023-03-17T20:52:14.885Z,99.90
2023-03-17T20:56:19.790Z,99.90
2023-03-17T21:00:22.194Z,99.90
2023-03-17T21:04:24.741Z,99.90
2023-03-17T21:08:29.802Z,99.90
2023-03-17T21:12:31.883Z,99.90
2023-03-17T21:16:36.008Z,99.90
2023-03-17T21:20:37.826Z,99.90
2023-03-17T21:24:40.130Z,99.90
2023-03-17T21:28:45.389Z,99.90
2023-03-17T21:32:47.385Z,99.90
2023-03-17T21:36:51.852Z,99.90
2023-03-17T21:40:57.070Z,99.90
2023-03-17T21:44:58.915Z,99.90
2023-03-17T21:49:01.392Z,99.90
2023-03-17T21:53:04.625Z,99.90
2023-03-17T21:57:06.652Z,99.90
2023-03-17T22:01:09.294Z,99.90
2023-03-17T22:05:11.122Z,99.90
2023-03-17T22:09:13.028Z,99.90
2023-03-17T22:13:14.830Z,99.90
2023-03-17T22:17:16.850Z,99.90
2023-03-17T22:21:18.812Z,99.90
2023-03-17T22:25:22.931Z,99.90
2023-03-17T22:29:26.376Z,99.90
2023-03-17T22:33:28.512Z,99.90
2023-03-17T22:37:30.387Z,99.90
2023-03-17T22:41:32.213Z,99.90
2023-03-17T22:45:34.097Z,99.90
2023-03-17T22:49:36.198Z,99.90
2023-03-17T22:53:38.334Z,99.90
2023-03-17T22:57:40.333Z,99.90
2023-03-17T23:01:42.139Z,99.90
2023-03-17T23:05:57.068Z,99.90
2023-03-17T23:09:58.816Z,99.90
2023-03-17T23:14:00.560Z,99.90
2023-03-17T23:18:03.529Z,99.90
2023-03-17T23:22:05.425Z,99.90
2023-03-17T23:26:07.341Z,99.90
2023-03-17T23:30:11.967Z,99.90
2023-03-17T23:34:14.162Z,99.90
2023-03-17T23:38:19.523Z,99.90
2023-03-17T23:42:21.367Z,99.90
2023-03-17T23:46:23.677Z,99.90
2023-03-17T23:50:25.489Z,99.90
2023-03-17T23:54:27.981Z,99.90
2023-03-17T23:58:29.945Z,99.90
